Weather at Alicante-Elche Miguel Hernández Airport

Public forecast

Using degrees Celsius for public forecast. Weather courtesy of forecast.io.

Current aviation weather report (METAR) for Alicante-Elche Miguel Hernández Airport

2024/05/20 22:30 (retrieved 11 minutes ago)

LEAL 202230Z VRB01KT CAVOK 19/15 Q1012 NOSIG

Aviation forecast (TAF) for Alicante-Elche Miguel Hernández Airport

2024/05/20 18:27 (retrieved 4 hours ago)

TAF TAF LEAL 201700Z 2018/2118 13010KT 9999 FEW020 TX27/2115Z TN15/2106Z TEMPO 2018/2019 3000 TSRA FEW030CB BECMG 2018/2020 VRB03KT BECMG 2108/2110 10010KT BECMG 2112/2115 19010KT